createdAt,value
2018-09-26T00:01:18.145Z,3.80
2018-09-26T00:03:52.599Z,3.13
2018-09-26T00:06:23.158Z,3.50
2018-09-26T00:08:53.538Z,3.77
2018-09-26T00:11:24.557Z,3.43
2018-09-26T00:13:54.355Z,4.07
2018-09-26T00:16:24.106Z,3.00
2018-09-26T00:18:54.097Z,3.07
2018-09-26T00:21:23.735Z,3.80
2018-09-26T00:23:54.324Z,4.03
2018-09-26T00:26:24.020Z,3.33
2018-09-26T00:28:54.706Z,3.50
2018-09-26T00:31:24.388Z,4.13
2018-09-26T00:33:54.688Z,2.77
2018-09-26T00:36:26.467Z,4.03
2018-09-26T00:38:56.713Z,3.07
2018-09-26T00:41:27.476Z,3.47
2018-09-26T00:43:57.536Z,3.07
2018-09-26T00:46:27.773Z,3.53
2018-09-26T00:48:57.449Z,3.30
2018-09-26T00:51:27.162Z,3.37
2018-09-26T00:53:57.401Z,3.20
2018-09-26T00:56:27.253Z,3.23
2018-09-26T00:58:58.004Z,3.97
2018-09-26T01:01:28.088Z,3.70
2018-09-26T01:03:57.608Z,3.20
2018-09-26T01:06:27.837Z,3.70
2018-09-26T01:08:58.233Z,3.83
2018-09-26T01:11:28.857Z,4.47
2018-09-26T01:13:59.364Z,3.13
2018-09-26T01:16:29.551Z,3.47
2018-09-26T01:18:59.396Z,3.80
2018-09-26T01:21:30.976Z,3.43
2018-09-26T01:24:01.069Z,3.40
2018-09-26T01:26:30.784Z,3.10
2018-09-26T01:29:00.805Z,3.00
2018-09-26T01:31:31.056Z,3.10
2018-09-26T01:34:01.975Z,3.30
2018-09-26T01:36:32.609Z,3.33
2018-09-26T01:39:03.445Z,3.60
2018-09-26T01:41:33.206Z,3.23
2018-09-26T01:44:04.386Z,3.33
2018-09-26T01:46:38.544Z,3.43
2018-09-26T01:49:09.413Z,3.70
2018-09-26T01:51:40.373Z,2.90
2018-09-26T01:54:12.561Z,3.00
2018-09-26T01:56:43.148Z,3.40
2018-09-26T01:59:14.002Z,3.00
2018-09-26T02:01:44.279Z,3.10
2018-09-26T02:04:14.210Z,3.03
2018-09-26T02:06:44.228Z,3.03
2018-09-26T02:09:13.845Z,3.17
2018-09-26T02:11:44.972Z,3.57
2018-09-26T02:14:15.312Z,3.20
2018-09-26T02:16:46.388Z,3.33
2018-09-26T02:19:17.385Z,3.90
2018-09-26T02:21:46.993Z,3.37
2018-09-26T02:24:17.829Z,3.27
2018-09-26T02:26:47.547Z,3.43
2018-09-26T02:29:17.610Z,3.43
2018-09-26T02:31:48.967Z,3.90
2018-09-26T02:34:18.517Z,2.80
2018-09-26T02:36:48.677Z,3.70
2018-09-26T02:39:18.906Z,3.30
2018-09-26T02:41:49.059Z,3.70
2018-09-26T02:44:18.629Z,3.30
2018-09-26T02:46:50.034Z,3.27
2018-09-26T02:49:20.430Z,3.40
2018-09-26T02:51:51.842Z,3.20
2018-09-26T02:54:22.627Z,3.07
2018-09-26T02:56:52.782Z,3.20
2018-09-26T02:59:24.134Z,3.17
2018-09-26T03:01:53.678Z,3.00
2018-09-26T03:04:23.515Z,2.80
2018-09-26T03:06:53.589Z,3.23
2018-09-26T03:09:27.636Z,3.20
2018-09-26T03:11:57.266Z,3.47
2018-09-26T03:14:28.222Z,3.27
2018-09-26T03:16:58.013Z,3.10
2018-09-26T03:19:27.649Z,3.20
2018-09-26T03:21:57.855Z,3.13
2018-09-26T03:24:27.564Z,3.60
2018-09-26T03:26:57.224Z,3.87
2018-09-26T03:29:28.804Z,3.57
2018-09-26T03:32:00.464Z,3.60
2018-09-26T03:34:31.480Z,4.00
2018-09-26T03:37:02.310Z,3.93
2018-09-26T03:39:32.432Z,3.90
2018-09-26T03:42:02.661Z,3.33
2018-09-26T03:44:32.824Z,3.83
2018-09-26T03:47:04.049Z,4.50
2018-09-26T03:49:35.848Z,3.40
2018-09-26T03:52:11.522Z,3.37
2018-09-26T03:54:41.641Z,3.90
2018-09-26T03:57:12.810Z,3.30
2018-09-26T03:59:43.079Z,3.67
2018-09-26T04:02:13.447Z,3.40
2018-09-26T04:04:43.964Z,3.80
2018-09-26T04:07:14.474Z,3.97
2018-09-26T04:09:44.064Z,3.97
2018-09-26T04:12:13.826Z,4.13
2018-09-26T04:14:45.070Z,4.40
2018-09-26T04:17:15.030Z,3.93
2018-09-26T04:19:45.900Z,3.40
2018-09-26T04:22:15.473Z,3.30
2018-09-26T04:24:45.130Z,3.63
2018-09-26T04:27:15.025Z,3.47
2018-09-26T04:29:44.548Z,3.20
2018-09-26T04:32:14.822Z,3.70
2018-09-26T04:34:44.795Z,3.53
2018-09-26T04:37:14.420Z,3.30
2018-09-26T04:39:44.370Z,3.50
2018-09-26T04:42:14.045Z,3.60
2018-09-26T04:44:43.581Z,3.70
2018-09-26T04:47:13.598Z,3.40
2018-09-26T04:49:44.798Z,3.50
2018-09-26T04:52:15.073Z,3.80
2018-09-26T04:54:44.850Z,4.20
2018-09-26T04:57:14.336Z,4.30
2018-09-26T04:59:44.604Z,4.63
2018-09-26T05:02:14.071Z,4.50
2018-09-26T05:04:43.932Z,4.73
2018-09-26T05:07:18.556Z,4.07
2018-09-26T05:09:49.938Z,5.93
2018-09-26T05:12:20.028Z,5.13
2018-09-26T05:14:49.948Z,4.57
2018-09-26T05:17:19.740Z,4.30
2018-09-26T05:19:49.758Z,4.83
2018-09-26T05:22:19.791Z,4.87
2018-09-26T05:24:50.815Z,5.13
2018-09-26T05:27:20.406Z,4.70
2018-09-26T05:29:54.813Z,4.90
2018-09-26T05:32:25.135Z,4.40
2018-09-26T05:34:56.370Z,4.30
2018-09-26T05:37:26.566Z,4.60
2018-09-26T05:39:56.289Z,4.50
2018-09-26T05:42:26.471Z,5.00
2018-09-26T05:44:56.112Z,5.27
2018-09-26T05:47:27.116Z,5.43
2018-09-26T05:49:57.662Z,5.37
2018-09-26T05:52:28.643Z,4.57
2018-09-26T05:54:58.357Z,4.97
2018-09-26T05:57:28.591Z,5.40
2018-09-26T05:59:59.151Z,5.30
2018-09-26T06:02:28.919Z,6.10
2018-09-26T06:04:58.357Z,5.70
2018-09-26T06:07:29.377Z,6.77
2018-09-26T06:09:59.078Z,8.43
2018-09-26T06:12:28.859Z,8.23
2018-09-26T06:14:59.186Z,6.40
2018-09-26T06:17:30.064Z,6.97
2018-09-26T06:20:01.993Z,7.40
2018-09-26T06:22:32.132Z,5.40
2018-09-26T06:25:03.261Z,6.33
2018-09-26T06:27:32.804Z,5.70
2018-09-26T06:30:03.141Z,5.77
2018-09-26T06:32:33.444Z,3.50
2018-09-26T06:35:04.156Z,4.47
2018-09-26T06:37:39.684Z,4.23
2018-09-26T06:40:09.483Z,3.80
2018-09-26T06:42:40.110Z,4.50
2018-09-26T06:45:12.072Z,4.67
2018-09-26T06:47:42.615Z,4.23
2018-09-26T06:50:17.405Z,4.70
2018-09-26T06:52:47.333Z,4.13
2018-09-26T06:55:17.441Z,4.30
2018-09-26T06:57:48.251Z,4.70
2018-09-26T07:00:18.561Z,5.30
2018-09-26T07:02:50.373Z,4.30
2018-09-26T07:05:21.875Z,4.20
2018-09-26T07:07:52.511Z,3.43
2018-09-26T07:10:23.682Z,3.10
2018-09-26T07:12:54.116Z,4.17
2018-09-26T07:15:24.507Z,2.97
2018-09-26T07:17:55.683Z,3.43
2018-09-26T07:20:25.816Z,3.23
2018-09-26T07:22:55.974Z,3.63
2018-09-26T07:25:30.167Z,3.70
2018-09-26T07:28:00.863Z,4.20
2018-09-26T07:30:32.490Z,4.73
2018-09-26T07:33:02.398Z,5.40
2018-09-26T07:35:32.155Z,4.00
2018-09-26T07:38:01.743Z,4.10
2018-09-26T07:40:32.240Z,3.57
2018-09-26T07:43:01.917Z,3.10
2018-09-26T07:45:33.749Z,3.30
2018-09-26T07:48:03.426Z,3.60
2018-09-26T07:50:33.081Z,3.80
2018-09-26T07:53:03.657Z,3.27
2018-09-26T07:55:38.633Z,3.70
2018-09-26T07:58:09.228Z,3.37
2018-09-26T08:00:39.286Z,3.33
2018-09-26T08:03:09.111Z,4.10
2018-09-26T08:05:39.885Z,3.70
2018-09-26T08:08:10.844Z,4.10
2018-09-26T08:10:40.579Z,3.90
2018-09-26T08:13:10.290Z,5.13
2018-09-26T08:15:40.221Z,3.80
2018-09-26T08:18:11.553Z,3.57
2018-09-26T08:20:41.794Z,3.50
2018-09-26T08:23:13.049Z,3.80
2018-09-26T08:25:43.250Z,3.63
2018-09-26T08:28:14.730Z,3.20
2018-09-26T08:30:45.834Z,3.00
2018-09-26T08:33:18.511Z,2.80
2018-09-26T08:35:48.430Z,2.13
2018-09-26T08:38:19.665Z,1.97
2018-09-26T08:40:50.986Z,2.60
2018-09-26T08:43:20.878Z,2.43
2018-09-26T08:45:53.768Z,2.23
2018-09-26T08:48:24.201Z,2.90
2018-09-26T08:50:53.958Z,3.00
2018-09-26T08:53:23.968Z,2.10
2018-09-26T08:55:54.375Z,2.63
2018-09-26T08:58:24.463Z,2.57
2018-09-26T09:00:55.349Z,1.97
2018-09-26T09:03:25.111Z,2.37
2018-09-26T09:05:55.873Z,2.07
2018-09-26T09:08:26.119Z,2.40
2018-09-26T09:10:56.202Z,2.30
2018-09-26T09:13:27.073Z,2.10
2018-09-26T09:15:57.302Z,2.23
2018-09-26T09:18:27.666Z,2.10
2018-09-26T09:20:57.645Z,1.87
2018-09-26T09:23:27.142Z,2.80
2018-09-26T09:25:57.458Z,1.97
2018-09-26T09:28:27.196Z,1.87
2018-09-26T09:30:58.182Z,1.73
2018-09-26T09:33:27.876Z,1.57
2018-09-26T09:35:58.166Z,1.83
2018-09-26T09:38:28.019Z,2.03
2018-09-26T09:40:57.803Z,1.93
2018-09-26T09:43:27.518Z,2.30
2018-09-26T09:45:57.462Z,2.83
2018-09-26T09:48:27.286Z,2.90
2018-09-26T09:50:58.491Z,2.43
2018-09-26T09:53:30.092Z,2.43
2018-09-26T09:56:00.967Z,2.53
2018-09-26T09:58:32.894Z,3.30
2018-09-26T10:01:08.525Z,2.17
2018-09-26T10:03:38.867Z,2.50
2018-09-26T10:06:09.219Z,1.53
2018-09-26T10:08:42.787Z,3.00
2018-09-26T10:11:13.796Z,2.37
2018-09-26T10:13:44.341Z,1.70
2018-09-26T10:16:15.812Z,1.90
2018-09-26T10:18:45.765Z,1.97
2018-09-26T10:21:18.063Z,1.50
2018-09-26T10:23:47.540Z,1.60
2018-09-26T10:26:17.104Z,1.57
2018-09-26T10:42:23.104Z,1.40
2018-09-26T10:44:52.779Z,1.50
2018-09-26T10:47:23.152Z,1.60
2018-09-26T10:49:53.638Z,1.30
2018-09-26T10:52:23.025Z,1.67
2018-09-26T10:54:52.401Z,1.30
2018-09-26T10:57:21.991Z,2.10
2018-09-26T10:59:53.093Z,1.73
2018-09-26T11:02:22.665Z,2.00
2018-09-26T11:04:52.195Z,1.80
2018-09-26T11:07:21.856Z,1.93
2018-09-26T11:09:51.803Z,1.30
2018-09-26T11:12:21.280Z,1.80
2018-09-26T11:14:52.100Z,1.30
2018-09-26T11:17:21.670Z,1.27
2018-09-26T11:19:51.009Z,1.40
2018-09-26T11:22:20.449Z,1.40
2018-09-26T11:24:49.859Z,1.50
2018-09-26T11:27:19.378Z,1.93
2018-09-26T11:29:48.763Z,1.83
2018-09-26T11:32:18.200Z,1.73
2018-09-26T11:34:48.081Z,2.13
2018-09-26T11:37:17.509Z,1.73
2018-09-26T11:39:46.915Z,2.17
2018-09-26T11:42:16.260Z,2.00
2018-09-26T11:44:45.905Z,2.00
2018-09-26T11:47:15.318Z,1.87
2018-09-26T11:49:44.687Z,2.10
2018-09-26T11:52:14.491Z,1.90
2018-09-26T11:54:43.909Z,1.80
2018-09-26T11:57:14.270Z,1.80
2018-09-26T11:59:43.718Z,1.60
2018-09-26T12:02:13.676Z,1.50
2018-09-26T12:04:43.105Z,1.50
2018-09-26T12:07:17.646Z,1.60
2018-09-26T12:09:47.128Z,1.70
2018-09-26T12:12:17.317Z,1.70
2018-09-26T12:14:47.045Z,1.13
2018-09-26T12:17:16.670Z,1.30
2018-09-26T12:19:46.365Z,1.30
2018-09-26T12:22:16.012Z,1.67
2018-09-26T12:24:45.887Z,1.40
2018-09-26T12:27:15.550Z,1.87
2018-09-26T12:29:44.972Z,1.70
2018-09-26T12:32:14.384Z,1.30
2018-09-26T12:34:43.867Z,1.60
2018-09-26T12:37:13.292Z,1.60
2018-09-26T12:39:42.685Z,1.50
2018-09-26T12:42:12.291Z,1.37
2018-09-26T12:44:42.502Z,2.50
2018-09-26T12:47:13.162Z,2.83
2018-09-26T12:49:43.252Z,1.87
2018-09-26T12:52:14.058Z,1.30
2018-09-26T12:54:44.431Z,1.70
2018-09-26T12:57:14.143Z,1.50
2018-09-26T12:59:46.113Z,1.70
2018-09-26T13:02:15.508Z,1.30
2018-09-26T13:04:45.709Z,1.60
2018-09-26T13:07:15.134Z,1.70
2018-09-26T13:09:44.564Z,1.53
2018-09-26T13:12:14.839Z,1.50
2018-09-26T13:14:44.518Z,1.50
2018-09-26T13:17:14.696Z,1.27
2018-09-26T13:19:44.526Z,1.57
2018-09-26T13:22:14.896Z,2.77
2018-09-26T13:24:44.515Z,1.40
2018-09-26T13:27:14.553Z,1.30
2018-09-26T13:29:45.053Z,1.60
2018-09-26T13:32:15.007Z,1.83
2018-09-26T13:34:45.438Z,1.30
2018-09-26T13:37:14.958Z,1.40
2018-09-26T13:39:44.321Z,1.93
2018-09-26T13:42:13.913Z,1.97
2018-09-26T13:44:47.701Z,2.17
2018-09-26T13:47:18.596Z,1.43
2018-09-26T13:49:48.000Z,1.70
2018-09-26T13:52:17.925Z,2.07
2018-09-26T13:54:47.337Z,1.50
2018-09-26T13:57:16.718Z,1.50
2018-09-26T13:59:46.057Z,1.57
2018-09-26T14:02:15.826Z,1.20
2018-09-26T14:04:45.181Z,1.50
2018-09-26T14:07:14.512Z,1.30
2018-09-26T14:09:43.916Z,1.63
2018-09-26T14:12:14.426Z,1.80
2018-09-26T14:14:43.820Z,1.97
2018-09-26T14:17:13.557Z,1.73
2018-09-26T14:19:43.757Z,1.40
2018-09-26T14:22:13.849Z,1.20
2018-09-26T14:24:43.753Z,1.30
2018-09-26T14:27:13.847Z,1.67
2018-09-26T14:29:43.362Z,1.73
2018-09-26T14:32:13.442Z,1.13
2018-09-26T14:34:45.095Z,1.57
2018-09-26T14:37:14.567Z,1.27
2018-09-26T14:39:43.984Z,1.27
2018-09-26T14:42:14.341Z,1.50
2018-09-26T14:44:47.228Z,1.73
2018-09-26T14:47:17.665Z,1.93
2018-09-26T14:49:47.346Z,2.27
2018-09-26T14:52:16.785Z,1.67
2018-09-26T14:54:46.859Z,1.80
2018-09-26T14:57:16.316Z,1.13
2018-09-26T14:59:46.004Z,1.47
2018-09-26T15:02:16.312Z,1.47
2018-09-26T15:04:46.886Z,1.60
2018-09-26T15:07:18.782Z,1.37
2018-09-26T15:09:49.038Z,1.80
2018-09-26T15:12:18.459Z,2.47
2018-09-26T15:14:48.486Z,2.73
2018-09-26T15:17:18.707Z,2.17
2018-09-26T15:19:48.788Z,2.00
2018-09-26T15:22:18.199Z,1.50
2018-09-26T15:24:48.545Z,1.53
2018-09-26T15:27:17.985Z,1.60
2018-09-26T15:29:48.867Z,1.40
2018-09-26T15:32:18.555Z,1.53
2018-09-26T15:34:47.977Z,2.10
2018-09-26T15:37:17.306Z,2.00
2018-09-26T15:39:46.697Z,2.20
2018-09-26T15:42:16.084Z,2.10
2018-09-26T15:44:46.032Z,2.80
2018-09-26T15:47:17.247Z,1.80
2018-09-26T15:49:46.638Z,1.60
2018-09-26T15:52:17.164Z,2.00
2018-09-26T15:54:46.521Z,1.70
2018-09-26T15:57:18.022Z,2.40
2018-09-26T15:59:47.430Z,1.60
2018-09-26T16:02:16.920Z,2.70
2018-09-26T16:04:46.696Z,2.47
2018-09-26T16:07:16.089Z,2.87
2018-09-26T16:09:46.199Z,2.20
2018-09-26T16:12:15.697Z,1.97
2018-09-26T16:14:45.614Z,1.90
2018-09-26T16:17:15.622Z,1.67
2018-09-26T16:19:45.165Z,1.63
2018-09-26T16:22:14.645Z,1.80
2018-09-26T16:24:44.658Z,1.77
2018-09-26T16:27:14.263Z,1.90
2018-09-26T16:29:44.001Z,1.33
2018-09-26T16:32:13.640Z,1.33
2018-09-26T16:34:43.539Z,1.40
2018-09-26T16:37:13.503Z,1.70
2018-09-26T16:39:43.692Z,2.03
2018-09-26T16:42:13.817Z,1.67
2018-09-26T16:44:43.609Z,1.70
2018-09-26T16:47:13.641Z,1.83
2018-09-26T16:49:45.505Z,1.67
2018-09-26T16:52:15.874Z,1.80
2018-09-26T16:54:45.293Z,2.10
2018-09-26T16:57:15.006Z,2.30
2018-09-26T16:59:44.458Z,2.10
2018-09-26T17:02:14.260Z,2.10
2018-09-26T17:04:45.169Z,1.97
2018-09-26T17:07:15.257Z,2.43
2018-09-26T17:09:45.152Z,2.00
2018-09-26T17:12:14.857Z,2.27
2018-09-26T17:14:44.202Z,2.20
2018-09-26T17:17:14.309Z,2.10
2018-09-26T17:19:44.425Z,2.07
2018-09-26T17:22:14.670Z,2.07
2018-09-26T17:24:45.285Z,2.27
2018-09-26T17:27:14.704Z,2.07
2018-09-26T17:29:44.027Z,2.20
2018-09-26T17:32:13.661Z,2.07
2018-09-26T17:34:44.189Z,2.00
2018-09-26T17:37:14.075Z,2.23
2018-09-26T17:39:43.571Z,2.30
2018-09-26T17:42:18.037Z,2.43
2018-09-26T17:44:48.771Z,2.60
2018-09-26T17:47:18.540Z,2.47
2018-09-26T17:49:47.957Z,2.50
2018-09-26T17:52:17.584Z,2.10
2018-09-26T17:54:46.952Z,2.60
2018-09-26T17:57:16.364Z,3.10
2018-09-26T17:59:45.701Z,2.47
2018-09-26T18:02:15.378Z,2.40
2018-09-26T18:04:44.737Z,2.80
2018-09-26T18:07:19.175Z,2.93
2018-09-26T18:09:48.741Z,2.37
2018-09-26T18:12:23.268Z,2.70
2018-09-26T18:14:52.639Z,2.93
2018-09-26T18:17:22.706Z,2.97
2018-09-26T18:19:52.742Z,2.53
2018-09-26T18:22:23.664Z,2.40
2018-09-26T18:24:57.773Z,2.70
2018-09-26T18:27:28.021Z,2.57
2018-09-26T18:29:57.947Z,2.77
2018-09-26T18:32:29.957Z,2.77
2018-09-26T18:34:59.581Z,3.00
2018-09-26T18:37:35.332Z,2.97
2018-09-26T18:40:05.434Z,3.60
2018-09-26T18:42:35.868Z,4.40
2018-09-26T18:45:06.659Z,4.30
2018-09-26T18:47:41.885Z,3.87
2018-09-26T18:50:11.352Z,3.00
2018-09-26T18:52:41.266Z,2.90
2018-09-26T18:55:11.925Z,3.43
2018-09-26T18:57:41.306Z,3.37
2018-09-26T19:00:11.039Z,3.00
2018-09-26T19:02:43.299Z,3.37
2018-09-26T19:05:12.930Z,3.47
2018-09-26T19:07:42.941Z,3.60
2018-09-26T19:10:12.812Z,3.20
2018-09-26T19:12:42.342Z,3.10
2018-09-26T19:15:16.263Z,2.93
2018-09-26T19:17:47.558Z,2.77
2018-09-26T19:20:16.952Z,2.80
2018-09-26T19:22:46.792Z,2.67
2018-09-26T19:25:16.741Z,2.93
2018-09-26T19:27:47.128Z,3.07
2018-09-26T19:30:17.654Z,2.40
2018-09-26T19:32:47.109Z,3.70
2018-09-26T19:35:18.605Z,2.90
2018-09-26T19:37:53.770Z,3.10
2018-09-26T19:40:23.578Z,3.20
2018-09-26T19:42:53.414Z,2.73
2018-09-26T19:45:23.857Z,3.17
2018-09-26T19:47:54.757Z,3.17
2018-09-26T19:50:25.137Z,3.27
2018-09-26T19:52:55.117Z,3.83
2018-09-26T19:55:24.697Z,3.60
2018-09-26T19:57:55.172Z,3.50
2018-09-26T20:00:28.940Z,3.90
2018-09-26T20:02:58.677Z,3.47
2018-09-26T20:05:28.763Z,4.70
2018-09-26T20:07:59.028Z,3.23
2018-09-26T20:10:29.018Z,3.43
2018-09-26T20:12:58.529Z,2.73
2018-09-26T20:15:30.336Z,3.63
2018-09-26T20:18:04.837Z,3.00
2018-09-26T20:20:36.830Z,3.50
2018-09-26T20:23:11.288Z,3.00
2018-09-26T20:25:40.671Z,3.67
2018-09-26T20:28:10.528Z,4.00
2018-09-26T20:30:40.134Z,4.30
2018-09-26T20:33:11.259Z,3.63
2018-09-26T20:35:41.646Z,4.60
2018-09-26T20:38:11.804Z,3.60
2018-09-26T20:40:42.641Z,4.07
2018-09-26T20:43:13.004Z,4.53
2018-09-26T20:45:42.394Z,4.73
2018-09-26T20:48:11.869Z,5.67
2018-09-26T20:50:42.025Z,6.37
2018-09-26T20:53:16.025Z,5.80
2018-09-26T20:55:45.795Z,5.70
2018-09-26T20:58:16.389Z,6.23
2018-09-26T21:00:46.623Z,5.57
2018-09-26T21:03:17.774Z,6.30
2018-09-26T21:05:48.757Z,7.00
2018-09-26T21:08:18.761Z,6.50
2018-09-26T21:10:48.568Z,9.70
2018-09-26T21:13:17.992Z,8.97
2018-09-26T21:15:48.541Z,6.70
2018-09-26T21:18:17.961Z,7.77
2018-09-26T21:20:47.846Z,6.50
2018-09-26T21:23:17.581Z,6.20
2018-09-26T21:25:48.357Z,6.80
2018-09-26T21:28:18.602Z,8.30
2018-09-26T21:30:49.298Z,10.37
2018-09-26T21:33:19.441Z,10.47
2018-09-26T21:35:49.549Z,9.60
2018-09-26T21:38:19.734Z,12.03
2018-09-26T21:40:50.389Z,12.93
2018-09-26T21:43:20.315Z,11.97
2018-09-26T21:45:49.994Z,7.90
2018-09-26T21:48:19.903Z,7.60
2018-09-26T21:50:52.080Z,8.10
2018-09-26T21:53:21.600Z,6.43
2018-09-26T21:55:51.800Z,5.70
2018-09-26T21:58:21.212Z,5.43
2018-09-26T22:00:55.897Z,5.90
2018-09-26T22:03:26.069Z,5.30
2018-09-26T22:05:56.370Z,5.10
2018-09-26T22:08:26.165Z,4.80
2018-09-26T22:10:55.636Z,5.90
2018-09-26T22:13:25.012Z,5.00
2018-09-26T22:15:55.131Z,4.93
2018-09-26T22:18:24.600Z,4.87
2018-09-26T22:20:54.361Z,4.63
2018-09-26T22:23:24.031Z,4.67
2018-09-26T22:25:53.343Z,5.60
2018-09-26T22:28:22.712Z,4.60
2018-09-26T22:30:53.954Z,4.80
2018-09-26T22:33:23.324Z,4.93
2018-09-26T22:35:52.761Z,4.67
2018-09-26T22:38:28.277Z,5.60
2018-09-26T22:40:58.125Z,5.70
2018-09-26T22:43:27.718Z,5.57
2018-09-26T22:45:58.133Z,5.90
2018-09-26T22:48:27.755Z,5.27
2018-09-26T22:50:57.274Z,5.60
2018-09-26T22:53:31.406Z,4.20
2018-09-26T22:56:01.319Z,5.60
2018-09-26T22:58:30.815Z,4.80
2018-09-26T23:01:00.347Z,5.70
2018-09-26T23:03:34.433Z,5.33
2018-09-26T23:06:03.822Z,4.90
2018-09-26T23:08:34.526Z,4.80
2018-09-26T23:11:04.120Z,5.17
2018-09-26T23:13:34.482Z,5.00
2018-09-26T23:16:05.111Z,4.40
2018-09-26T23:18:35.094Z,5.30
2018-09-26T23:21:05.200Z,5.17
2018-09-26T23:23:34.992Z,5.20
2018-09-26T23:26:05.238Z,5.43
2018-09-26T23:28:35.332Z,5.40
2018-09-26T23:31:05.649Z,5.87
2018-09-26T23:33:35.549Z,6.20
2018-09-26T23:36:05.039Z,6.27
2018-09-26T23:38:35.306Z,6.10
2018-09-26T23:41:05.618Z,5.93
2018-09-26T23:43:35.174Z,5.90
2018-09-26T23:46:04.668Z,5.53
2018-09-26T23:48:34.722Z,6.07
2018-09-26T23:51:04.888Z,5.80
2018-09-26T23:53:35.812Z,4.93
2018-09-26T23:56:05.885Z,5.50
2018-09-26T23:58:36.240Z,5.33
